Decoded Metar for K2G4 (GARRETT CO in MD, USA) (IATA:2G4) | Meteo·Mobile Aviation Weather
aviador You're here:

K2G4 Decoded Metar

GARRETT CO in MD, USA
Report Time2019-01-17 23:30:00
UTC Time2019-01-17 23:44:29
Flight Rules ifr IFR
WindCalm
Visibility8047 m
Phenomena:N/A
Clouds:Scattered 003 Hf
Overcast 008 Hf
Ceiling800 ft
Temp-3°C (ISA -12)
Dew Point-3°C (100% RH)
AAT-5.4°C
QNH1016 hPa
Density Alt1,424 ft
Elevation2,933 ft
Report Wrong Elevation
Raw Report
K2G4 172330Z AUTO 00000KT 5SM SCT003 OVC008 M03/M03 A2999 RMK
AO1=

Extra information for K2G4:More info

Metar Taf Metar & Taf Last 4 Metars F.Rules Stats Wind Profile Meteogram Temp Stats Airport Information Weather charts Add Link Nearby VenuesMetar ALERT Operation Metar Decoded Social comments

AIRNAV info for K2G4